Terminal Aerodrome Forecast
Issued by NWS

Home | Current Version | Previous Version | Text Only | Print | Product List | Glossary On
Versions: 1 2 3 4 5 6 7 8 9 10 11 12 13 14
457
FTUS46 KMFR 231351 AAA
TAFOTH
TAF AMD
KOTH 231351Z 2314/2412 17007KT 5SM -SHRA BR BKN015 BKN025 OVC040
      TEMPO 2314/2315 2SM BR
     FM231800 23009KT 6SM -SHRA SCT010 BKN020 OVC050
     FM240600 20015G25KT 4SM RA BR SCT007 BKN015 OVC030=

USA.gov is the U.S. government's official web portal to all federal, state and local government web resources and services.